AirNav   Air Wisconsin pilot careers
 
 1223 users online  

5D2 Northwood Municipal Airport
Northwood, Iowa, USA

GOING TO NORTHWOOD?


FAA INFORMATION EFFECTIVE 01 FEBRUARY 2018

Location

FAA Identifier: 5D2
Lat/Long: 43-26-55.6000N / 093-12-06.0000W
43-26.926667N / 093-12.100000W
43.4487778 / -93.2016667
(estimated)
Elevation: 1226 ft. / 373.7 m (surveyed)
Variation: 03E (1985)
From city: 1 mile E of NORTHWOOD, IA
Time zone: UTC -6 (UTC -5 during Daylight Saving Time)
Zip code: 50459

Airport Operations

Airport use: Open to the public
Activation date: 12/1961
Control tower: no
ARTCC: MINNEAPOLIS CENTER
FSS: FORT DODGE FLIGHT SERVICE STATION
NOTAMs facility: FOD (NOTAM-D service available)
Attendance: UNATNDD
Wind indicator: lighted
Segmented circle: no
Lights: SS-SR

Airport Communications

CTAF: 122.9
WX AWOS-3 at AEL (16 nm NW): 109.8 (507-377-1583)
WX AWOS-3 at AUM (17 nm NE): 119.025 (507-433-6667)
WX ASOS at MCW (18 nm S): 120.300 (641-357-8490)

Nearby radio navigation aids

VOR radial/distance  VOR name  Freq  Var
JAYr235/14.5AUSTIN VOR/DME108.2003E
AELr151/15.8ALBERT LEA VOR/DME109.8001E
MCWr009/22.0MASON CITY VOR/DME114.9006E
RSTr228/33.0ROCHESTER VOR/DME112.0005E

 
NDB name  Hdg/Dist  Freq  Var  ID
FOREST CITY052/22.335903EFXY ..-. -..- -.--

Airport Services

Parking: hangars and tiedowns

Runway Information

Runway 17/35

Dimensions: 3300 x 100 ft. / 1006 x 30 m
Surface: turf, in fair condition
Runway edge lights: low intensity
Runway edge markings: RYS 17& 35 THLDS & EDGES MKD WITH YELLOW CONES.
RUNWAY 17  RUNWAY 35
Latitude: 43-27.198338N43-26.655313N
Longitude: 093-12.112337W093-12.086910W
Elevation: 1225.0 ft.1226.0 ft.
Traffic pattern: leftleft
Runway heading: 175 magnetic, 178 true355 magnetic, 358 true
Markings: NSTDNSTD
Obstructions: none32 ft. trees, 659 ft. from runway, 115 ft. right of centerline, 20:1 slope to clear

Airport Ownership and Management from official FAA records

Ownership: Publicly-owned
Owner: CITY OF NORTHWOOD
CENTRAL AVE.
NORTHWOOD, IA 50459
Phone 641-324-1075
Manager: DR MIKE DIERENFELD
CENTRAL AVE
NORTHWOOD, IA 50459
Phone 641-324-1084

Airport Operational Statistics

Aircraft based on the field: 7
Single engine airplanes: 6
Ultralights: 1
    
Aircraft operations: avg 34/week *
60% transient general aviation
40% local general aviation
* for 12-month period ending 13 August 2015

Additional Remarks

CROP DUSTING & SKYDIVING PLANES ON & INVOF ARPT.
RY 17/35 +18 FT BIT RD 100 FT E & PARALLEL CNTRLN.

Instrument Procedures

There are no published instrument procedures at 5D2.

Some nearby airports with instrument procedures:

KAEL - Albert Lea Municipal Airport (16 nm NW)
KAUM - Austin Municipal Airport (17 nm NE)
KMCW - Mason City Municipal Airport (18 nm S)
KFXY - Forest City Municipal Airport (22 nm SW)
KCCY - Northeast Iowa Regional Airport (34 nm SE)
 
Loc | Ops | Rwys | IFR | FBO | Links
Com | Nav | Svcs | Stats | Notes

AirNav Hotels Sweepstakes
 
Area around 5D2 (Northwood Municipal Airport)
 
Road maps at: MapQuest Bing Google
 
Aerial photo
WARNING: Photo may not be current or correct
Aerial photo of 5D2 (Northwood Municipal Airport)
Photo by Ed Wells
Photo taken 29-Mar-2008

Do you have a better or more recent aerial photo of Northwood Municipal Airport that you would like to share? If so, please send us your photo.

 
Sectional chart

 
Airport distance calculator
Flying to Northwood Municipal Airport? Find the distance to fly.

From to 5D2

Sunrise and sunset
Times for 20-Feb-2018
 Local
(UTC-6)
 Zulu
(UTC)
Morning civil twilight06:3612:36
Sunrise07:0513:05
Sunset17:4923:49
Evening civil twilight18:1800:18

Current date and time
Zulu (UTC)  21-Feb-2018 00:35:05
Local (UTC-6)  20-Feb-2018 18:35:05
 
METAR
KAEL 
15nm NW 
210015Z AUTO 29007KT 10SM BKN011 M11/M14 A3019 RMK AO2
KAUM 
18nm NE 
210015Z AUTO 29010KT -SN BKN017 M10/M13 A3016 RMK AO2
KMCW 
19nm S 
202353Z AUTO 31018KT 10SM FEW014 M10/M13 A3019 RMK AO2 SNB00E24 SLP237 P0000 60000 T11001133 11061 21100 53040
KFXY 
22nm SW 
210015Z AUTO 32009KT 10SM CLR M10/M12 A3020 RMK AO2
TAF
KMCW 
19nm S 
210015Z 2100/2124 31018KT P6SM SCT015 FM211000 33009KT P6SM SCT250 FM211700 VRB04KT P6SM SCT200
NOTAMs
Click for the latest NOTAMs
NOTAMs are issued by the DoD/FAA and will open in a separate window not controlled by AirNav.

 

 
 

Would you like to see your business listed on this page?

 If your business provides an interesting product or service to pilots, flight crews, aircraft, or users of the Northwood Municipal Airport, you should consider listing it here.  To start the listing process, click on the button below
 
Add a business
 

Other Pages about Northwood Municipal Airport

Page from the Iowa Airport Directory
 
Update a link
 
Copyright © AirNav, LLC. All rights reserved. Privacy Policy  Contact